createdAt,value
2019-01-30T00:00:40.900Z,18.27
2019-01-30T00:05:42.673Z,16.07
2019-01-30T00:10:44.449Z,18.43
2019-01-30T00:15:55.811Z,18.97
2019-01-30T00:20:50.633Z,17.40
2019-01-30T00:25:52.358Z,19.03
2019-01-30T00:30:54.150Z,19.50
2019-01-30T00:35:55.924Z,22.77
2019-01-30T00:40:57.706Z,19.70
2019-01-30T00:45:59.478Z,19.80
2019-01-30T00:51:01.261Z,18.30
2019-01-30T00:56:03.544Z,22.47
2019-01-30T01:01:05.426Z,19.40
2019-01-30T01:06:07.730Z,16.40
2019-01-30T01:11:09.510Z,18.30
2019-01-30T01:16:11.381Z,17.70
2019-01-30T01:21:13.158Z,17.10
2019-01-30T01:26:15.035Z,15.87
2019-01-30T01:31:16.831Z,17.63
2019-01-30T01:36:18.583Z,17.60
2019-01-30T01:41:20.362Z,17.50
2019-01-30T01:46:22.165Z,17.37
2019-01-30T01:51:23.936Z,18.27
2019-01-30T01:56:27.040Z,16.57
2019-01-30T02:01:28.815Z,14.83
2019-01-30T02:06:30.697Z,18.03
2019-01-30T02:11:32.570Z,17.17
2019-01-30T02:16:34.442Z,18.70
2019-01-30T02:21:36.192Z,19.40
2019-01-30T02:26:38.006Z,15.57
2019-01-30T02:31:39.893Z,18.87
2019-01-30T02:36:43.511Z,14.30
2019-01-30T02:41:45.906Z,16.57
2019-01-30T02:46:47.783Z,19.63
2019-01-30T02:51:50.063Z,18.23
2019-01-30T02:56:52.761Z,18.70
2019-01-30T03:01:56.379Z,15.63
2019-01-30T03:06:58.256Z,17.80
2019-01-30T03:12:00.140Z,19.93
2019-01-30T03:17:01.910Z,18.67
2019-01-30T03:22:04.203Z,17.90
2019-01-30T03:27:05.976Z,16.53
2019-01-30T03:32:07.753Z,18.87
2019-01-30T03:37:10.449Z,20.30
2019-01-30T03:42:12.233Z,21.27
2019-01-30T03:47:14.356Z,18.40
2019-01-30T03:52:16.034Z,18.20
2019-01-30T03:57:17.870Z,16.87
2019-01-30T04:02:19.645Z,19.77
2019-01-30T04:07:21.450Z,17.70
2019-01-30T04:12:23.255Z,17.50
2019-01-30T04:17:25.055Z,17.27
2019-01-30T04:22:26.951Z,16.37
2019-01-30T04:27:29.155Z,15.37
2019-01-30T04:32:31.354Z,13.57
2019-01-30T04:37:33.131Z,18.23
2019-01-30T04:42:41.863Z,14.23
2019-01-30T04:47:44.789Z,15.27
2019-01-30T04:52:46.450Z,16.33
2019-01-30T04:57:48.714Z,20.03
2019-01-30T05:02:50.480Z,15.80
2019-01-30T05:07:52.273Z,16.80
2019-01-30T05:12:54.157Z,14.50
2019-01-30T05:17:56.029Z,16.10
2019-01-30T05:22:57.895Z,12.77
2019-01-30T05:27:59.658Z,15.60
2019-01-30T05:33:01.433Z,14.93
2019-01-30T05:38:03.395Z,16.70
2019-01-30T05:43:05.230Z,15.37
2019-01-30T05:48:07.010Z,12.80
2019-01-30T05:53:09.988Z,11.97
2019-01-30T05:58:12.068Z,15.20
2019-01-30T06:03:14.148Z,17.40
2019-01-30T06:08:16.025Z,14.63
2019-01-30T06:13:18.222Z,12.73
2019-01-30T06:18:20.094Z,12.40
2019-01-30T06:23:21.968Z,13.30
2019-01-30T06:28:28.668Z,14.20
2019-01-30T06:33:29.020Z,13.23
2019-01-30T06:38:30.779Z,15.50
2019-01-30T06:43:32.653Z,15.50
2019-01-30T06:48:34.735Z,12.90
2019-01-30T06:53:36.414Z,16.73
2019-01-30T06:58:39.520Z,15.10
2019-01-30T07:03:41.677Z,15.10
2019-01-30T07:08:43.425Z,16.80
2019-01-30T07:13:45.264Z,11.70
2019-01-30T07:18:47.734Z,13.73
2019-01-30T07:23:49.558Z,14.33
2019-01-30T07:28:51.445Z,13.73
2019-01-30T07:33:53.324Z,13.93
2019-01-30T07:38:55.541Z,15.37
2019-01-30T07:43:57.332Z,10.50
2019-01-30T07:49:02.488Z,15.30
2019-01-30T07:54:04.256Z,14.97
2019-01-30T07:59:08.082Z,15.13
2019-01-30T08:04:09.957Z,11.23
2019-01-30T08:09:12.025Z,12.50
2019-01-30T08:14:13.819Z,12.97
2019-01-30T08:19:16.020Z,11.97
2019-01-30T08:24:18.392Z,11.87
2019-01-30T08:29:20.355Z,11.83
2019-01-30T08:34:22.246Z,10.77
2019-01-30T08:39:26.055Z,12.53
2019-01-30T08:44:32.340Z,12.50
2019-01-30T08:49:34.744Z,10.00
2019-01-30T08:54:36.503Z,12.53
2019-01-30T08:59:38.558Z,12.53
2019-01-30T09:04:40.432Z,12.27
2019-01-30T09:09:42.310Z,9.20
2019-01-30T09:14:45.907Z,11.17
2019-01-30T09:19:48.598Z,12.00
2019-01-30T09:24:50.435Z,13.73
2019-01-30T09:29:52.179Z,11.47
2019-01-30T09:34:54.063Z,11.80
2019-01-30T09:40:04.053Z,10.80
2019-01-30T09:45:12.248Z,11.67
2019-01-30T09:50:16.975Z,9.50
2019-01-30T09:55:19.865Z,11.27
2019-01-30T10:00:27.200Z,6.90
2019-01-30T10:05:28.980Z,12.20
2019-01-30T10:10:34.054Z,10.00
2019-01-30T10:15:37.815Z,9.30
2019-01-30T10:20:42.540Z,10.50
2019-01-30T10:25:44.314Z,9.63
2019-01-30T10:30:46.566Z,8.23
2019-01-30T10:35:48.778Z,10.53
2019-01-30T10:40:51.009Z,9.77
2019-01-30T10:45:52.814Z,10.10
2019-01-30T10:50:55.082Z,11.30
2019-01-30T10:55:56.828Z,10.40
2019-01-30T11:00:59.964Z,7.90
2019-01-30T11:06:01.813Z,12.10
2019-01-30T11:11:08.010Z,13.40
2019-01-30T11:16:07.297Z,6.07
2019-01-30T11:21:09.014Z,7.87
2019-01-30T11:26:10.797Z,11.13
2019-01-30T11:31:12.601Z,9.43
2019-01-30T11:36:14.408Z,8.67
2019-01-30T11:41:16.214Z,7.67
2019-01-30T11:46:18.011Z,9.17
2019-01-30T11:51:19.838Z,8.90
2019-01-30T11:56:21.622Z,7.10
2019-01-30T12:01:24.650Z,8.03
2019-01-30T12:06:26.862Z,6.93
2019-01-30T12:11:28.671Z,7.47
2019-01-30T12:16:30.528Z,5.00
2019-01-30T12:21:32.375Z,8.23
2019-01-30T12:26:34.285Z,7.60
2019-01-30T12:31:36.041Z,6.60
2019-01-30T12:36:37.884Z,8.23
2019-01-30T12:41:39.703Z,7.10
2019-01-30T12:46:41.502Z,5.73
2019-01-30T12:51:43.268Z,8.80
2019-01-30T12:56:44.991Z,8.13
2019-01-30T13:01:46.897Z,8.03
2019-01-30T13:06:48.908Z,7.60
2019-01-30T13:11:50.710Z,7.90
2019-01-30T13:16:59.490Z,9.20
2019-01-30T13:22:01.428Z,7.50
2019-01-30T13:27:08.209Z,8.13
2019-01-30T13:32:10.353Z,8.80
2019-01-30T13:37:12.049Z,7.80
2019-01-30T13:42:14.471Z,7.67
2019-01-30T13:47:16.257Z,6.93
2019-01-30T13:52:18.635Z,9.17
2019-01-30T13:57:20.804Z,7.30
2019-01-30T14:02:23.043Z,7.63
2019-01-30T14:07:24.818Z,7.40
2019-01-30T14:12:26.628Z,7.63
2019-01-30T14:17:28.398Z,11.27
2019-01-30T14:22:30.580Z,7.20
2019-01-30T14:27:32.953Z,7.00
2019-01-30T14:32:34.817Z,7.63
2019-01-30T14:37:36.696Z,6.33
2019-01-30T14:42:38.477Z,7.00
2019-01-30T14:47:40.292Z,6.10
2019-01-30T14:52:44.238Z,7.73
2019-01-30T14:57:46.646Z,5.60
2019-01-30T15:02:50.109Z,6.80
2019-01-30T15:07:51.914Z,6.13
2019-01-30T15:12:53.736Z,6.10
2019-01-30T15:17:55.716Z,5.80
2019-01-30T15:22:58.503Z,7.40
2019-01-30T15:28:00.759Z,7.83
2019-01-30T15:33:03.117Z,6.50
2019-01-30T15:38:06.593Z,6.27
2019-01-30T15:43:08.760Z,6.77
2019-01-30T15:48:10.817Z,7.07
2019-01-30T15:53:13.700Z,6.50
2019-01-30T15:58:15.899Z,7.60
2019-01-30T16:03:17.736Z,6.97
2019-01-30T16:08:26.001Z,7.67
2019-01-30T16:13:28.215Z,6.53
2019-01-30T16:18:29.986Z,5.40
2019-01-30T16:23:31.909Z,5.30
2019-01-30T16:28:34.077Z,6.67
2019-01-30T16:33:35.954Z,5.40
2019-01-30T16:38:37.728Z,5.67
2019-01-30T16:43:39.518Z,9.00
2019-01-30T16:48:41.276Z,4.67
2019-01-30T16:53:44.870Z,5.90
2019-01-30T16:58:48.481Z,6.70
2019-01-30T17:03:52.762Z,8.03
2019-01-30T17:08:54.607Z,7.77
2019-01-30T17:13:56.384Z,7.80
2019-01-30T17:18:58.134Z,7.43
2019-01-30T17:23:59.958Z,9.13
2019-01-30T17:29:02.018Z,6.13
2019-01-30T17:34:03.914Z,8.83
2019-01-30T17:39:07.945Z,7.63
2019-01-30T17:44:12.709Z,9.30
2019-01-30T17:49:14.159Z,9.20
2019-01-30T17:54:18.186Z,7.37
2019-01-30T17:59:19.968Z,7.20
2019-01-30T18:04:22.149Z,7.97
2019-01-30T18:09:24.032Z,9.73
2019-01-30T18:14:27.195Z,5.97
2019-01-30T18:19:31.115Z,10.30
2019-01-30T18:24:34.344Z,8.03
2019-01-30T18:29:38.912Z,10.70
2019-01-30T18:34:40.730Z,9.10
2019-01-30T18:39:49.683Z,10.77
2019-01-30T18:44:53.127Z,11.03
2019-01-30T18:49:54.931Z,10.47
2019-01-30T18:54:56.816Z,10.20
2019-01-30T18:59:58.514Z,7.00
2019-01-30T19:05:02.358Z,9.23
2019-01-30T19:10:10.298Z,11.43
2019-01-30T19:15:18.873Z,8.57
2019-01-30T19:20:26.811Z,6.27
2019-01-30T19:25:28.706Z,11.80
2019-01-30T19:30:33.606Z,8.17
2019-01-30T19:35:35.898Z,8.77
2019-01-30T19:40:37.665Z,8.50
2019-01-30T19:45:39.449Z,7.97
2019-01-30T19:50:41.635Z,8.67
2019-01-30T19:55:43.595Z,7.80
2019-01-30T20:00:45.886Z,9.90
2019-01-30T20:05:49.691Z,10.03
2019-01-30T20:10:51.926Z,13.20
2019-01-30T20:15:54.138Z,9.67
2019-01-30T20:20:56.150Z,7.50
2019-01-30T20:25:58.351Z,7.43
2019-01-30T20:31:01.338Z,6.87
2019-01-30T20:36:03.756Z,7.67
2019-01-30T20:41:08.021Z,5.50
2019-01-30T20:46:09.952Z,9.17
2019-01-30T20:51:11.998Z,7.87
2019-01-30T20:56:13.889Z,6.57
2019-01-30T21:01:15.659Z,9.43
2019-01-30T21:06:17.979Z,11.20
2019-01-30T21:11:19.754Z,8.43
2019-01-30T21:16:21.552Z,8.53
2019-01-30T21:21:23.370Z,12.03
2019-01-30T21:26:25.973Z,8.67
2019-01-30T21:31:28.058Z,8.60
2019-01-30T21:36:29.822Z,9.47
2019-01-30T21:41:31.649Z,9.33
2019-01-30T21:46:33.467Z,12.17
2019-01-30T21:51:35.244Z,8.77
2019-01-30T21:56:37.108Z,10.63
2019-01-30T22:01:38.898Z,10.10
2019-01-30T22:06:40.781Z,8.73
2019-01-30T22:11:42.548Z,9.10
2019-01-30T22:16:44.436Z,9.00
2019-01-30T22:21:46.537Z,10.60
2019-01-30T22:26:48.334Z,11.20
2019-01-30T22:31:50.125Z,9.57
2019-01-30T22:36:51.914Z,9.83
2019-01-30T22:41:53.698Z,10.13
2019-01-30T22:46:55.869Z,10.67
2019-01-30T22:51:57.735Z,8.23
2019-01-30T22:56:59.510Z,11.73
2019-01-30T23:02:02.169Z,10.27
2019-01-30T23:07:07.726Z,9.30
2019-01-30T23:12:28.160Z,11.30
2019-01-30T23:17:39.680Z,7.57
2019-01-30T23:23:02.894Z,9.57
2019-01-30T23:28:32.654Z,12.43
2019-01-30T23:33:47.333Z,10.33
2019-01-30T23:39:26.243Z,11.07
2019-01-30T23:44:37.787Z,7.67
2019-01-30T23:49:55.147Z,9.83
2019-01-30T23:55:04.503Z,11.27
